Time;durP1;ratioP1;P1;durP2;ratioP2;P2;SDS_P1;SDS_P2;PMS_P1;PMS_P2;Temp;Humidity;BMP_temperature;BMP_pressure;BME280_temperature;BME280_humidity;BME280_pressure;Samples;Min_cycle;Max_cycle;Signal;HPM_P1;HPM_P2
2023/10/02 00:01:47;;;;;;;17.33;6.70;;;19.40;99.90;;;;;;5057512;28;20039;-38
2023/10/02 00:04:17;;;;;;;18.73;6.63;;;19.40;99.90;;;;;;5073969;28;20048;-39
2023/10/02 00:06:46;;;;;;;17.23;6.55;;;19.40;99.90;;;;;;5075866;28;20024;-44
2023/10/02 00:09:16;;;;;;;20.75;7.07;;;19.40;99.90;;;;;;5076129;28;20020;-39
2023/10/02 00:11:42;;;;;;;14.48;5.63;;;19.40;99.90;;;;;;5075493;28;20041;-38
2023/10/02 00:14:19;;;;;;;15.52;5.35;;;19.50;99.90;;;;;;5067448;28;20367;-37
2023/10/02 00:16:59;;;;;;;21.85;6.80;;;19.50;99.90;;;;;;5057142;28;20017;-41
2023/10/02 00:19:39;;;;;;;15.23;6.25;;;19.50;99.90;;;;;;5062134;28;20028;-42
2023/10/02 00:22:09;;;;;;;17.40;6.85;;;19.50;99.90;;;;;;5068702;28;20103;-39
2023/10/02 00:24:41;;;;;;;14.65;6.18;;;19.50;99.90;;;;;;5063514;28;20032;-39
2023/10/02 00:27:10;;;;;;;18.55;6.53;;;19.50;99.90;;;;;;5072935;28;20424;-39
2023/10/02 00:29:51;;;;;;;13.45;5.88;;;19.50;99.90;;;;;;5075432;28;20486;-39
2023/10/02 00:32:19;;;;;;;12.18;5.95;;;19.50;99.90;;;;;;5075685;28;20020;-39
2023/10/02 00:34:51;;;;;;;16.73;6.03;;;19.50;99.90;;;;;;5070816;28;20029;-40
2023/10/02 00:37:17;;;;;;;18.90;6.20;;;19.50;99.90;;;;;;5071979;28;20477;-40
2023/10/02 00:39:47;;;;;;;17.90;6.28;;;19.50;99.90;;;;;;5066690;28;20027;-39
2023/10/02 00:45:01;;;;;;;16.48;6.50;;;19.50;99.90;;;;;;5063581;28;20037;-39
2023/10/02 00:47:47;;;;;;;12.90;5.40;;;19.50;99.90;;;;;;5070431;28;20470;-40
2023/10/02 00:50:22;;;;;;;15.63;6.15;;;19.50;99.90;;;;;;5070158;28;20021;-42
2023/10/02 00:52:54;;;;;;;13.77;5.85;;;19.50;99.90;;;;;;5063764;28;20359;-39
2023/10/02 00:55:33;;;;;;;15.45;5.35;;;19.60;99.90;;;;;;5059793;28;20056;-41
2023/10/02 00:58:02;;;;;;;15.90;5.88;;;19.60;99.90;;;;;;5059491;28;20021;-42
2023/10/02 01:00:42;;;;;;;17.42;5.80;;;19.60;99.90;;;;;;5074667;28;20050;-41
2023/10/02 01:03:17;;;;;;;16.45;5.38;;;19.60;99.90;;;;;;5070197;28;20017;-42
2023/10/02 01:05:58;;;;;;;15.27;6.65;;;19.60;99.90;;;;;;5072324;28;20025;-39
2023/10/02 01:08:24;;;;;;;15.13;6.38;;;19.60;99.90;;;;;;5062902;28;20123;-41
2023/10/02 01:11:00;;;;;;;15.38;5.43;;;19.60;99.90;;;;;;5064160;28;20028;-39
2023/10/02 01:13:32;;;;;;;17.23;6.00;;;19.60;99.90;;;;;;5064357;28;20051;-41
2023/10/02 01:16:00;;;;;;;16.35;5.85;;;19.50;99.90;;;;;;5058545;28;20103;-40
2023/10/02 01:18:28;;;;;;;14.93;6.15;;;19.50;99.90;;;;;;5072950;28;20025;-39
2023/10/02 01:20:59;;;;;;;15.07;5.82;;;19.50;99.90;;;;;;5070330;28;20051;-44
2023/10/02 01:23:32;;;;;;;16.95;6.20;;;19.50;99.90;;;;;;5067979;28;20033;-44
2023/10/02 01:26:00;;;;;;;17.77;5.55;;;19.50;99.90;;;;;;5064711;28;20025;-40
2023/10/02 01:28:51;;;;;;;17.42;7.07;;;19.50;99.90;;;;;;5061487;28;20025;-40
2023/10/02 01:31:31;;;;;;;12.90;5.63;;;19.50;99.90;;;;;;5057822;28;20504;-41
2023/10/02 01:34:00;;;;;;;17.52;6.93;;;19.40;99.90;;;;;;5071606;28;20017;-40
2023/10/02 01:36:31;;;;;;;17.55;6.78;;;19.40;99.90;;;;;;5060362;28;20025;-41
2023/10/02 01:39:14;;;;;;;15.98;6.07;;;19.40;99.90;;;;;;5064364;28;20025;-40
2023/10/02 01:41:52;;;;;;;13.95;6.43;;;19.40;99.90;;;;;;5060115;28;20417;-39
2023/10/02 01:44:22;;;;;;;14.82;6.25;;;19.30;99.90;;;;;;5061972;28;20482;-39
2023/10/02 01:46:52;;;;;;;15.82;6.80;;;19.30;99.90;;;;;;5057226;28;20024;-40
2023/10/02 01:49:25;;;;;;;23.27;6.97;;;19.30;99.90;;;;;;5070685;28;20032;-39
2023/10/02 01:51:57;;;;;;;16.40;6.35;;;19.30;99.90;;;;;;5065296;28;20037;-40
2023/10/02 01:54:25;;;;;;;18.02;6.50;;;19.30;99.90;;;;;;5064955;28;20354;-40
2023/10/02 01:56:52;;;;;;;15.65;5.82;;;19.30;99.90;;;;;;5059445;28;20023;-40
2023/10/02 01:59:19;;;;;;;17.30;6.07;;;19.30;99.90;;;;;;5071367;28;20016;-42
2023/10/02 02:01:54;;;;;;;10.77;5.05;;;19.20;99.90;;;;;;5065023;28;20029;-39
2023/10/02 02:04:32;;;;;;;18.27;6.82;;;19.20;99.90;;;;;;5066255;28;20539;-40
2023/10/02 02:07:00;;;;;;;17.27;6.55;;;19.20;99.90;;;;;;5053600;28;20029;-41
2023/10/02 02:09:35;;;;;;;;;;;19.10;99.90;;;;;;5072125;28;20373;-39
2023/10/02 02:12:07;;;;;;;20.20;6.72;;;19.10;99.90;;;;;;5057936;28;19916;-42
2023/10/02 02:14:51;;;;;;;20.83;6.55;;;19.10;99.90;;;;;;5057696;28;20024;-42
2023/10/02 02:17:21;;;;;;;14.93;5.75;;;19.10;99.90;;;;;;5062517;28;20068;-39
2023/10/02 02:19:50;;;;;;;15.50;6.30;;;19.10;99.90;;;;;;5065547;28;20020;-41
2023/10/02 02:22:26;;;;;;;17.90;6.55;;;19.00;99.90;;;;;;5062744;28;20032;-44
2023/10/02 02:24:53;;;;;;;13.98;5.88;;;19.00;99.90;;;;;;5068624;28;20046;-42
2023/10/02 02:27:19;;;;;;;17.80;6.28;;;19.00;99.90;;;;;;5072915;28;20024;-39
2023/10/02 02:29:49;;;;;;;19.23;7.43;;;19.00;99.90;;;;;;5054555;28;20490;-41
2023/10/02 02:32:19;;;;;;;25.17;5.90;;;18.90;99.90;;;;;;5056914;28;20017;-39
2023/10/02 02:34:49;;;;;;;16.85;7.03;;;18.90;99.90;;;;;;5063035;28;20016;-40
2023/10/02 02:37:16;;;;;;;17.70;6.38;;;18.90;99.90;;;;;;5071156;28;20020;-40
2023/10/02 02:39:43;;;;;;;20.95;7.07;;;18.90;99.90;;;;;;5070486;28;20021;-40
2023/10/02 02:42:09;;;;;;;21.83;6.17;;;18.90;99.90;;;;;;5051724;28;20029;-39
2023/10/02 02:44:46;;;;;;;18.67;7.72;;;18.90;99.90;;;;;;5064290;28;20024;-40
2023/10/02 02:47:17;;;;;;;17.85;6.50;;;18.90;99.90;;;;;;5069603;28;20032;-41
2023/10/02 02:50:09;;;;;;;18.83;7.15;;;18.90;99.90;;;;;;5067728;28;20029;-40
2023/10/02 02:52:33;;;;;;;18.15;6.20;;;18.80;99.90;;;;;;5069091;28;20033;-42
2023/10/02 02:55:13;;;;;;;25.65;6.82;;;18.80;99.90;;;;;;5061900;28;20028;-41
2023/10/02 02:57:45;;;;;;;16.15;5.95;;;18.80;99.90;;;;;;5070155;28;20470;-39
2023/10/02 03:00:29;;;;;;;13.90;5.57;;;18.80;99.90;;;;;;5068021;28;20554;-46
2023/10/02 03:02:56;;;;;;;13.52;5.32;;;18.70;99.90;;;;;;5071853;28;20078;-40
2023/10/02 03:05:25;;;;;;;22.95;7.15;;;18.70;99.90;;;;;;5056431;28;20051;-40
2023/10/02 03:07:56;;;;;;;14.98;5.82;;;18.70;99.90;;;;;;5062562;28;20028;-41
2023/10/02 03:10:23;;;;;;;16.50;6.47;;;18.70;99.90;;;;;;5061787;28;20044;-39
2023/10/02 03:12:50;;;;;;;17.80;6.13;;;18.70;99.90;;;;;;5072424;28;20068;-40
2023/10/02 03:18:22;;;;;;;19.15;7.05;;;18.60;99.90;;;;;;5071860;28;20416;-40
2023/10/02 03:20:52;;;;;;;17.42;6.70;;;18.60;99.90;;;;;;5069414;28;20029;-41
2023/10/02 03:23:18;;;;;;;22.90;7.40;;;18.60;99.90;;;;;;5065696;28;20036;-40
2023/10/02 03:25:47;;;;;;;16.25;6.63;;;18.50;99.90;;;;;;5072550;28;20493;-39
2023/10/02 03:28:28;;;;;;;17.55;6.13;;;18.50;99.90;;;;;;5067231;28;20510;-41
2023/10/02 03:30:57;;;;;;;17.13;7.03;;;18.50;99.90;;;;;;5072261;28;20024;-39
2023/10/02 03:33:31;;;;;;;19.67;6.30;;;18.50;99.90;;;;;;5075178;28;20012;-40
2023/10/02 03:36:10;;;;;;;18.52;6.22;;;18.50;99.90;;;;;;5067186;28;20531;-40
2023/10/02 03:38:41;;;;;;;17.25;6.82;;;18.50;99.90;;;;;;5070918;28;20032;-43
2023/10/02 03:41:10;;;;;;;17.80;7.22;;;18.40;99.90;;;;;;5074702;28;20033;-38
2023/10/02 03:43:46;;;;;;;18.50;6.28;;;18.40;99.90;;;;;;5069538;28;20550;-39
2023/10/02 03:46:17;;;;;;;23.13;7.63;;;18.30;99.90;;;;;;5070816;28;20052;-45
2023/10/02 03:48:51;;;;;;;24.15;6.93;;;18.30;99.90;;;;;;5075145;28;20025;-38
2023/10/02 03:51:36;;;;;;;20.45;7.05;;;18.30;99.90;;;;;;5074747;28;20520;-39
2023/10/02 03:54:17;;;;;;;17.63;7.32;;;18.20;99.90;;;;;;5073796;28;20055;-40
2023/10/02 03:56:55;;;;;;;16.88;6.70;;;18.20;99.90;;;;;;5066895;28;20377;-39
2023/10/02 03:59:27;;;;;;;21.38;7.25;;;18.10;99.90;;;;;;5072479;28;20033;-42
2023/10/02 04:01:57;;;;;;;18.17;7.18;;;18.10;99.90;;;;;;5061642;28;20534;-42
2023/10/02 04:04:24;;;;;;;19.35;6.75;;;18.10;99.90;;;;;;5059225;28;20059;-40
2023/10/02 04:06:53;;;;;;;20.40;8.00;;;18.10;99.90;;;;;;5057857;28;20016;-41
2023/10/02 04:11:50;;;;;;;16.60;6.97;;;18.00;99.90;;;;;;5074071;28;20045;-38
2023/10/02 04:14:31;;;;;;;19.33;7.05;;;18.00;99.90;;;;;;5075676;28;20051;-41
2023/10/02 04:17:10;;;;;;;15.13;6.53;;;18.00;99.90;;;;;;5061985;28;20029;-39
2023/10/02 04:20:27;;;;;;;16.48;6.50;;;17.90;99.90;;;;;;5068568;28;20081;-40
2023/10/02 04:22:36;;;;;;;17.13;7.35;;;17.90;99.90;;;;;;5058324;28;20037;-38
2023/10/02 04:32:59;;;;;;;20.55;7.40;;;17.80;99.90;;;;;;5057442;28;20040;-39
2023/10/02 04:38:14;;;;;;;21.20;6.72;;;17.80;99.90;;;;;;5064368;28;20151;-38
2023/10/02 04:40:52;;;;;;;19.17;6.97;;;17.80;99.90;;;;;;5069145;28;20024;-41
2023/10/02 04:43:25;;;;;;;21.08;7.22;;;17.80;99.90;;;;;;5059408;28;20029;-38
2023/10/02 04:46:01;;;;;;;19.90;7.15;;;17.80;99.90;;;;;;5059181;28;20025;-41
2023/10/02 04:48:38;;;;;;;22.40;7.07;;;17.70;99.90;;;;;;5063720;28;20021;-40
2023/10/02 04:51:09;;;;;;;16.50;6.75;;;17.70;99.90;;;;;;5062866;28;20033;-41
2023/10/02 04:53:35;;;;;;;22.48;7.68;;;17.70;99.90;;;;;;5066584;28;20021;-38
2023/10/02 04:56:13;;;;;;;20.20;6.82;;;17.70;99.90;;;;;;5075184;28;20488;-39
2023/10/02 04:58:47;;;;;;;19.63;6.68;;;17.80;99.90;;;;;;5067105;28;20468;-40
2023/10/02 05:01:29;;;;;;;18.33;7.35;;;17.70;99.90;;;;;;5074858;28;20111;-40
2023/10/02 05:04:02;;;;;;;19.80;8.27;;;17.80;99.90;;;;;;5071329;28;20032;-38
2023/10/02 05:11:59;;;;;;;22.13;7.95;;;17.70;99.90;;;;;;5055364;28;20049;-41
2023/10/02 05:14:26;;;;;;;22.00;7.10;;;17.70;99.90;;;;;;5063046;28;20020;-41
2023/10/02 05:17:19;;;;;;;18.35;6.50;;;17.70;99.90;;;;;;5055595;28;20074;-39
2023/10/02 05:20:03;;;;;;;20.23;7.40;;;17.70;99.90;;;;;;5068379;28;20052;-40
2023/10/02 05:22:31;;;;;;;18.50;8.50;;;17.70;99.90;;;;;;5058679;28;20021;-40
2023/10/02 05:25:04;;;;;;;14.20;6.88;;;17.70;99.90;;;;;;5055271;28;20394;-43
2023/10/02 05:27:36;;;;;;;22.05;7.40;;;17.70;99.90;;;;;;5067594;28;20107;-41
2023/10/02 05:30:12;;;;;;;16.98;6.50;;;17.70;99.90;;;;;;5061504;28;20032;-38
2023/10/02 05:32:39;;;;;;;21.25;6.80;;;17.70;99.90;;;;;;5069524;28;20073;-42
2023/10/02 05:35:16;;;;;;;22.42;7.03;;;17.70;99.90;;;;;;5058045;28;20017;-41
2023/10/02 05:37:45;;;;;;;17.02;6.65;;;17.60;99.90;;;;;;5066883;28;20389;-39
2023/10/02 05:45:47;;;;;;;20.35;7.35;;;17.60;99.90;;;;;;5054480;28;20033;-40
2023/10/02 05:50:56;;;;;;;28.55;8.77;;;17.60;99.90;;;;;;5073031;28;20060;-39
2023/10/02 05:53:29;;;;;;;17.98;6.90;;;17.60;99.90;;;;;;5071868;28;20028;-38
2023/10/02 05:58:39;;;;;;;17.75;7.20;;;17.60;99.90;;;;;;5070985;28;20029;-40
2023/10/02 06:01:16;;;;;;;21.50;7.93;;;17.60;99.90;;;;;;5071474;28;20362;-42
2023/10/02 06:03:42;;;;;;;16.17;6.32;;;17.60;99.90;;;;;;5072582;28;20028;-39
2023/10/02 06:06:21;;;;;;;17.42;6.88;;;17.60;99.90;;;;;;5073566;28;20082;-38
2023/10/02 06:08:49;;;;;;;17.02;7.80;;;17.60;99.90;;;;;;5073400;28;20465;-39
2023/10/02 06:11:34;;;;;;;21.13;7.35;;;17.60;99.90;;;;;;5072138;28;20040;-38
2023/10/02 06:14:10;;;;;;;16.52;6.70;;;17.60;99.90;;;;;;5073428;28;20127;-39
2023/10/02 06:16:39;;;;;;;18.73;7.95;;;17.60;99.90;;;;;;5067216;28;20401;-39
2023/10/02 06:19:06;;;;;;;18.70;7.03;;;17.70;99.90;;;;;;5070094;28;20021;-39
2023/10/02 06:21:47;;;;;;;17.25;7.30;;;17.70;99.90;;;;;;5073678;28;20024;-39
2023/10/02 06:24:19;;;;;;;22.00;8.45;;;17.70;99.90;;;;;;5073584;28;20550;-39
2023/10/02 06:26:58;;;;;;;19.50;7.35;;;17.80;99.90;;;;;;5073344;28;20032;-38
2023/10/02 06:29:35;;;;;;;18.20;8.00;;;17.80;99.90;;;;;;5073450;28;20519;-39
2023/10/02 06:32:11;;;;;;;17.63;6.32;;;17.80;99.90;;;;;;5072037;28;20043;-41
2023/10/02 06:34:43;;;;;;;15.82;6.28;;;17.90;99.90;;;;;;5059612;28;20032;-40
2023/10/02 06:37:12;;;;;;;21.65;8.35;;;17.90;99.90;;;;;;5065597;28;20044;-42
2023/10/02 06:40:06;;;;;;;23.00;7.07;;;17.90;99.90;;;;;;5056757;28;20031;-39
2023/10/02 06:42:32;;;;;;;16.70;7.03;;;17.90;99.90;;;;;;5070571;28;20099;-39
2023/10/02 06:45:01;;;;;;;16.83;7.53;;;18.00;99.90;;;;;;5071272;28;20035;-41
2023/10/02 06:47:30;;;;;;;17.15;6.53;;;18.00;99.90;;;;;;5072035;28;20086;-39
2023/10/02 06:50:48;;;;;;;18.23;6.80;;;18.00;99.90;;;;;;5071834;28;20082;-39
2023/10/02 06:52:43;;;;;;;23.83;7.50;;;18.10;99.90;;;;;;5060300;28;20111;-38
2023/10/02 06:55:11;;;;;;;19.83;6.80;;;18.10;99.90;;;;;;5072527;28;20063;-39
2023/10/02 06:57:49;;;;;;;24.05;7.47;;;18.10;99.90;;;;;;5072859;28;20024;-39
2023/10/02 07:00:22;;;;;;;20.45;6.38;;;18.10;99.90;;;;;;5072706;28;20111;-39
2023/10/02 07:02:57;;;;;;;21.27;7.78;;;18.10;99.90;;;;;;5069453;28;20090;-43
2023/10/02 07:05:32;;;;;;;19.88;6.53;;;18.20;99.90;;;;;;5052772;28;20021;-39
2023/10/02 07:10:50;;;;;;;20.80;7.68;;;18.20;99.90;;;;;;5067479;28;20578;-39
2023/10/02 07:13:20;;;;;;;19.10;8.13;;;18.30;99.90;;;;;;5072668;28;20447;-44
2023/10/02 07:15:57;;;;;;;19.70;7.10;;;18.30;99.90;;;;;;5071750;28;20048;-40
2023/10/02 07:18:37;;;;;;;20.98;7.60;;;18.30;99.90;;;;;;5059528;28;20020;-39
2023/10/02 07:21:09;;;;;;;19.65;7.05;;;18.30;99.90;;;;;;5072358;28;20028;-38
2023/10/02 07:23:39;;;;;;;20.45;7.93;;;18.40;99.90;;;;;;5066495;28;20029;-39
2023/10/02 07:26:05;;;;;;;16.88;7.28;;;18.40;99.90;;;;;;5054309;28;20060;-40
2023/10/02 07:28:31;;;;;;;25.17;8.48;;;18.40;99.90;;;;;;5062598;28;20055;-40
2023/10/02 07:30:59;;;;;;;19.98;6.75;;;18.40;99.90;;;;;;5072313;28;20420;-38
2023/10/02 07:33:25;;;;;;;13.68;6.30;;;18.40;99.90;;;;;;5067156;28;20054;-40
2023/10/02 07:35:54;;;;;;;19.77;7.78;;;18.50;99.90;;;;;;5061741;28;20484;-41
2023/10/02 07:38:30;;;;;;;18.90;6.95;;;18.50;99.90;;;;;;5056992;28;20477;-41
2023/10/02 07:41:06;;;;;;;20.45;8.25;;;18.60;99.90;;;;;;5069168;28;20535;-39
2023/10/02 07:43:32;;;;;;;22.63;6.72;;;18.60;99.90;;;;;;5063256;28;20082;-42
2023/10/02 07:46:14;;;;;;;18.80;7.85;;;18.70;99.90;;;;;;5059326;28;20034;-39
2023/10/02 07:48:41;;;;;;;22.55;8.00;;;18.80;99.90;;;;;;5072385;28;20039;-39
2023/10/02 07:51:09;;;;;;;17.77;6.93;;;18.80;99.90;;;;;;5072200;28;20090;-41
2023/10/02 07:53:39;;;;;;;18.27;7.40;;;18.80;99.90;;;;;;5072579;28;20711;-42
2023/10/02 07:56:06;;;;;;;24.15;8.50;;;18.80;99.90;;;;;;5070097;28;20055;-38
2023/10/02 07:58:33;;;;;;;26.95;7.50;;;18.80;99.90;;;;;;5070020;28;20488;-40
2023/10/02 08:01:06;;;;;;;22.15;7.53;;;18.80;99.90;;;;;;5071005;28;20095;-40
2023/10/02 08:03:32;;;;;;;19.17;7.25;;;18.80;99.90;;;;;;5072197;28;20112;-41
2023/10/02 08:06:20;;;;;;;19.50;7.60;;;18.80;99.90;;;;;;5072479;28;20469;-39
2023/10/02 08:08:46;;;;;;;22.70;8.27;;;18.90;99.90;;;;;;5052506;28;20040;-41
2023/10/02 08:11:12;;;;;;;20.05;7.32;;;18.90;99.90;;;;;;5052764;28;20527;-43
2023/10/02 08:13:48;;;;;;;21.50;8.75;;;19.00;99.90;;;;;;5069202;28;20037;-39
2023/10/02 08:16:17;;;;;;;19.80;7.80;;;19.00;99.90;;;;;;5076176;28;20036;-51
2023/10/02 08:18:57;;;;;;;24.05;7.70;;;19.10;99.90;;;;;;5072232;28;20024;-53
2023/10/02 08:21:36;;;;;;;24.55;9.20;;;19.10;99.90;;;;;;5057173;28;20119;-53
2023/10/02 08:24:06;;;;;;;22.88;7.78;;;19.20;99.90;;;;;;5055634;28;20071;-52
2023/10/02 08:26:44;;;;;;;15.35;6.53;;;19.30;99.90;;;;;;5059466;28;20028;-54
2023/10/02 08:29:13;;;;;;;22.83;8.38;;;19.30;99.90;;;;;;5062786;28;20078;-53
2023/10/02 08:31:43;;;;;;;26.80;8.70;;;19.40;99.90;;;;;;5069927;28;20030;-52
2023/10/02 08:34:12;;;;;;;26.88;8.23;;;19.50;99.90;;;;;;5056635;28;20385;-53
2023/10/02 08:36:39;;;;;;;22.33;7.75;;;19.50;99.90;;;;;;5055360;28;20421;-53
2023/10/02 08:39:05;;;;;;;17.73;7.28;;;19.60;99.90;;;;;;5062969;28;20020;-53
2023/10/02 08:41:31;;;;;;;19.67;7.38;;;19.70;99.90;;;;;;5072718;28;20024;-47
2023/10/02 08:44:00;;;;;;;27.33;9.10;;;19.80;99.90;;;;;;5075330;28;20033;-50
2023/10/02 08:46:26;;;;;;;15.77;7.35;;;19.90;99.90;;;;;;5074311;28;20476;-51
2023/10/02 08:48:54;;;;;;;23.42;8.80;;;20.00;99.90;;;;;;5075318;28;20032;-51
2023/10/02 08:51:35;;;;;;;19.10;8.10;;;20.10;99.90;;;;;;5073506;28;20032;-53
2023/10/02 08:54:05;;;;;;;29.10;8.75;;;20.00;99.90;;;;;;5074992;28;20022;-54
2023/10/02 08:56:43;;;;;;;23.25;8.20;;;19.90;99.90;;;;;;5059572;28;20481;-51
2023/10/02 08:59:26;;;;;;;27.25;9.90;;;20.00;99.90;;;;;;5074319;28;20036;-53
2023/10/02 09:02:07;;;;;;;27.45;8.65;;;20.00;99.90;;;;;;5072059;28;20440;-53
2023/10/02 09:04:33;;;;;;;31.45;9.52;;;20.10;99.90;;;;;;5072750;28;20068;-52
2023/10/02 09:07:03;;;;;;;32.45;10.13;;;20.10;99.90;;;;;;5074919;28;20034;-49
2023/10/02 09:11:58;;;;;;;30.00;9.70;;;20.30;99.90;;;;;;5054782;28;20053;-52
2023/10/02 09:19:49;;;;;;;32.25;11.35;;;20.60;99.90;;;;;;5056780;28;20040;-52
2023/10/02 09:22:18;;;;;;;28.55;11.10;;;20.70;99.90;;;;;;5073131;28;20435;-50
2023/10/02 09:24:55;;;;;;;25.58;9.10;;;20.80;99.90;;;;;;5073689;28;20051;-51
2023/10/02 09:27:23;;;;;;;28.05;9.57;;;20.90;99.90;;;;;;5054850;28;20087;-53
2023/10/02 09:32:52;;;;;;;25.42;9.93;;;21.20;99.90;;;;;;5065028;28;20051;-53
2023/10/02 09:35:29;;;;;;;34.13;11.00;;;21.20;99.90;;;;;;5074743;28;20052;-51
2023/10/02 09:37:59;;;;;;;30.27;10.15;;;21.30;99.90;;;;;;5055332;28;20021;-52
2023/10/02 09:40:28;;;;;;;24.80;9.60;;;21.40;99.90;;;;;;5056670;28;20025;-53
2023/10/02 09:43:01;;;;;;;40.08;10.82;;;21.40;99.90;;;;;;5074216;28;20031;-54
2023/10/02 09:45:31;;;;;;;27.42;9.95;;;21.50;99.90;;;;;;5054919;28;20028;-51
2023/10/02 09:48:05;;;;;;;31.88;10.98;;;21.60;99.90;;;;;;5054183;28;20032;-51
2023/10/02 09:50:39;;;;;;;26.45;10.35;;;21.70;99.90;;;;;;5053923;28;20082;-53
2023/10/02 09:53:12;;;;;;;34.42;10.50;;;21.70;99.90;;;;;;5053918;28;20036;-53
2023/10/02 09:55:41;;;;;;;26.83;10.18;;;21.70;99.90;;;;;;5063343;28;20549;-52
2023/10/02 09:58:26;;;;;;;25.45;8.30;;;21.90;99.90;;;;;;5053838;28;20560;-51
2023/10/02 10:03:53;;;;;;;20.42;7.40;;;22.00;99.90;;;;;;5073719;28;20028;-52
2023/10/02 10:06:19;;;;;;;25.77;9.27;;;22.10;99.90;;;;;;5061691;28;20514;-51
2023/10/02 10:12:21;;;;;;;22.02;9.63;;;22.00;99.90;;;;;;5070818;28;20047;-50
2023/10/02 10:14:54;;;;;;;22.08;9.45;;;21.80;99.90;;;;;;5073697;28;20492;-52
2023/10/02 10:17:21;;;;;;;30.58;8.63;;;21.80;99.90;;;;;;5072197;28;20017;-52
2023/10/02 10:22:57;;;;;;;19.13;7.82;;;21.70;99.90;;;;;;5041100;28;20044;-51
2023/10/02 10:25:22;;;;;;;20.80;7.80;;;21.80;99.90;;;;;;5053809;28;20028;-48
2023/10/02 10:27:58;;;;;;;17.23;7.85;;;21.80;99.90;;;;;;5058137;28;20020;-53
2023/10/02 10:30:28;;;;;;;21.35;7.50;;;21.80;99.90;;;;;;5054817;28;20025;-52
2023/10/02 10:35:55;;;;;;;15.65;7.97;;;22.00;99.90;;;;;;5059533;28;20029;-49
2023/10/02 10:41:09;;;;;;;23.85;8.73;;;22.10;99.90;;;;;;5055345;28;20039;-49
2023/10/02 10:43:44;;;;;;;18.55;7.65;;;22.30;99.90;;;;;;5073043;28;20028;-52
2023/10/02 10:46:30;;;;;;;15.77;6.65;;;22.50;99.90;;;;;;5070994;28;20481;-51
2023/10/02 10:49:23;;;;;;;13.30;6.70;;;22.60;99.90;;;;;;5072703;28;20056;-53
2023/10/02 10:51:52;;;;;;;14.65;6.78;;;22.70;99.90;;;;;;5064264;28;20025;-51
2023/10/02 10:54:19;;;;;;;15.40;6.18;;;22.80;99.90;;;;;;5058840;28;20021;-55
2023/10/02 10:56:56;;;;;;;15.88;4.90;;;22.90;99.90;;;;;;5057228;28;20021;-53
2023/10/02 10:59:32;;;;;;;15.32;6.65;;;23.00;99.90;;;;;;5061828;28;20044;-50
2023/10/02 11:02:17;;;;;;;18.25;6.53;;;23.10;99.90;;;;;;5071829;28;20538;-52
2023/10/02 11:04:47;;;;;;;14.93;6.15;;;23.10;99.90;;;;;;5053109;28;20028;-51
2023/10/02 11:07:19;;;;;;;18.20;7.30;;;23.20;99.90;;;;;;5053435;28;20108;-53
2023/10/02 11:10:15;;;;;;;22.33;6.70;;;23.30;99.90;;;;;;5052818;28;20044;-51
2023/10/02 11:12:54;;;;;;;13.88;6.50;;;23.30;99.90;;;;;;5052381;28;20057;-53
2023/10/02 11:18:23;;;;;;;16.83;6.60;;;23.40;99.90;;;;;;5052841;28;20078;-52
2023/10/02 11:20:57;;;;;;;15.55;6.40;;;23.40;99.90;;;;;;5052785;28;20029;-52
2023/10/02 11:23:40;;;;;;;14.93;6.45;;;23.50;99.90;;;;;;5053215;28;20047;-51
2023/10/02 11:26:11;;;;;;;16.38;5.80;;;23.50;99.90;;;;;;5052481;28;20029;-53
2023/10/02 11:28:38;;;;;;;12.85;6.28;;;23.50;99.90;;;;;;5052519;28;20071;-52
2023/10/02 11:31:30;;;;;;;18.60;7.05;;;23.40;99.90;;;;;;5052391;28;20025;-55
2023/10/02 11:34:00;;;;;;;17.05;6.38;;;23.30;99.90;;;;;;5052823;28;20028;-52
2023/10/02 11:36:28;;;;;;;16.75;5.72;;;23.10;99.90;;;;;;5055584;28;20017;-50
2023/10/02 11:38:56;;;;;;;14.55;6.85;;;23.00;99.90;;;;;;5071656;28;20035;-53
2023/10/02 11:41:21;;;;;;;14.95;7.47;;;22.90;99.90;;;;;;5052428;28;20028;-50
2023/10/02 11:43:48;;;;;;;15.60;6.45;;;22.90;99.90;;;;;;5052672;28;20376;-53
2023/10/02 11:46:14;;;;;;;19.38;7.13;;;22.90;99.90;;;;;;5053366;28;20067;-52
2023/10/02 11:48:40;;;;;;;12.20;6.25;;;22.90;99.90;;;;;;5056324;28;20029;-52
2023/10/02 11:51:07;;;;;;;18.75;7.60;;;22.80;99.90;;;;;;5068562;28;20036;-53
2023/10/02 11:53:33;;;;;;;;;;;22.90;99.90;;;;;;5076009;28;20012;-53
2023/10/02 11:55:58;;;;;;;18.13;7.55;;;22.90;99.90;;;;;;5075433;28;20207;-52
2023/10/02 11:58:24;;;;;;;18.15;8.25;;;23.10;99.90;;;;;;5076095;28;20028;-53
2023/10/02 12:00:50;;;;;;;21.63;7.97;;;23.20;99.90;;;;;;5076088;28;20100;-51
2023/10/02 12:03:18;;;;;;;16.98;7.78;;;23.30;99.90;;;;;;5076070;28;20157;-52
2023/10/02 12:05:43;;;;;;;;;;;23.40;99.90;;;;;;5076411;28;20381;-49
2023/10/02 12:08:09;;;;;;;17.83;7.88;;;23.30;99.90;;;;;;5076562;28;19908;-52
2023/10/02 12:10:39;;;;;;;14.05;6.70;;;23.20;99.90;;;;;;5074854;28;20069;-52
2023/10/02 12:13:06;;;;;;;22.13;7.88;;;23.20;99.90;;;;;;5074873;28;20124;-52
2023/10/02 12:15:31;;;;;;;15.13;6.00;;;23.30;99.90;;;;;;5076156;28;20102;-50
2023/10/02 12:17:57;;;;;;;15.02;6.43;;;23.50;99.90;;;;;;5075736;28;20538;-54
2023/10/02 12:20:23;;;;;;;18.83;7.63;;;23.70;99.90;;;;;;5075751;28;20143;-52
2023/10/02 12:22:48;;;;;;;11.95;5.85;;;23.90;99.90;;;;;;5075917;28;20021;-52
2023/10/02 12:25:15;;;;;;;20.48;7.88;;;24.00;99.90;;;;;;5075547;28;20025;-52
2023/10/02 12:27:41;;;;;;;16.70;6.57;;;24.10;99.90;;;;;;5074744;28;20103;-52
2023/10/02 12:30:11;;;;;;;17.80;6.60;;;24.20;99.90;;;;;;5067945;28;20171;-54
2023/10/02 12:32:40;;;;;;;19.10;6.13;;;24.20;99.90;;;;;;5069228;28;20036;-54
2023/10/02 12:35:06;;;;;;;16.75;6.53;;;24.20;99.90;;;;;;5074343;28;20582;-54
2023/10/02 12:37:32;;;;;;;17.50;6.60;;;24.30;99.90;;;;;;5055493;28;20029;-55
2023/10/02 12:39:58;;;;;;;14.25;6.07;;;24.40;99.90;;;;;;5055490;28;20113;-51
2023/10/02 12:42:25;;;;;;;17.90;6.40;;;24.40;99.90;;;;;;5068636;28;20431;-53
2023/10/02 12:44:53;;;;;;;14.25;6.00;;;24.60;99.90;;;;;;5074293;28;20020;-54
2023/10/02 12:47:19;;;;;;;14.45;5.85;;;24.50;99.90;;;;;;5075023;28;20070;-52
2023/10/02 12:49:45;;;;;;;14.60;6.53;;;24.50;99.90;;;;;;5074413;28;20028;-53
2023/10/02 12:52:11;;;;;;;11.57;5.95;;;24.50;99.90;;;;;;5074255;28;20477;-56
2023/10/02 12:54:37;;;;;;;16.65;6.65;;;24.60;99.90;;;;;;5071714;28;20520;-53
2023/10/02 12:57:05;;;;;;;14.80;5.17;;;24.60;99.90;;;;;;5063784;28;20024;-50
2023/10/02 12:59:30;;;;;;;13.07;5.40;;;24.60;99.90;;;;;;5074975;28;20267;-52
2023/10/02 13:01:56;;;;;;;14.18;5.22;;;24.70;99.90;;;;;;5070695;28;20071;-53
2023/10/02 13:04:22;;;;;;;14.98;5.70;;;24.80;99.90;;;;;;5057924;28;20032;-52
2023/10/02 13:06:47;;;;;;;16.75;6.40;;;24.90;99.90;;;;;;5054815;28;20021;-52
2023/10/02 13:11:44;;;;;;;20.40;6.05;;;25.10;99.90;;;;;;5054729;28;20033;-53
2023/10/02 13:14:11;;;;;;;17.23;5.22;;;25.20;99.90;;;;;;5054761;28;20044;-50
2023/10/02 13:16:38;;;;;;;14.90;5.47;;;25.20;99.90;;;;;;5054730;28;20021;-53
2023/10/02 13:19:09;;;;;;;16.00;5.90;;;25.20;99.90;;;;;;5058000;28;20064;-52
2023/10/02 13:21:37;;;;;;;14.38;6.90;;;25.20;99.90;;;;;;5055189;28;20083;-53
2023/10/02 13:24:03;;;;;;;16.45;6.90;;;25.30;99.90;;;;;;5062571;28;20497;-52
2023/10/02 13:26:29;;;;;;;13.40;5.57;;;25.20;99.90;;;;;;5074536;28;20035;-51
2023/10/02 13:28:55;;;;;;;13.18;6.15;;;25.20;99.90;;;;;;5074494;28;20024;-52
2023/10/02 13:31:22;;;;;;;16.70;7.25;;;25.20;99.90;;;;;;5070876;28;20123;-53
2023/10/02 13:33:51;;;;;;;12.10;5.05;;;25.20;99.90;;;;;;5068852;28;20030;-46
2023/10/02 13:36:22;;;;;;;19.35;6.53;;;25.20;99.90;;;;;;5063014;28;20087;-50
2023/10/02 13:38:53;;;;;;;17.15;6.95;;;25.30;99.90;;;;;;5061381;28;20052;-52
2023/10/02 13:41:19;;;;;;;16.35;6.10;;;25.30;99.90;;;;;;5073016;28;20108;-50
2023/10/02 13:43:45;;;;;;;13.15;5.50;;;25.30;99.90;;;;;;5074403;28;20112;-53
2023/10/02 13:46:14;;;;;;;16.83;6.82;;;25.20;99.90;;;;;;5074148;28;20032;-52
2023/10/02 13:48:41;;;;;;;13.85;5.95;;;25.30;99.90;;;;;;5073277;28;20060;-52
2023/10/02 13:51:07;;;;;;;15.03;6.77;;;25.40;99.90;;;;;;5059239;28;20040;-53
2023/10/02 13:53:34;;;;;;;17.57;7.17;;;25.40;99.90;;;;;;5064716;28;20111;-52
2023/10/02 13:56:10;;;;;;;20.00;7.15;;;25.40;99.90;;;;;;5066151;28;20282;-54
2023/10/02 13:58:43;;;;;;;17.90;7.10;;;25.40;99.90;;;;;;5062578;28;20560;-50
2023/10/02 14:01:14;;;;;;;18.50;6.80;;;25.30;99.90;;;;;;5063466;28;20032;-50
2023/10/02 14:03:41;;;;;;;14.65;6.05;;;25.30;99.90;;;;;;5065026;28;20021;-47
2023/10/02 14:06:08;;;;;;;15.73;7.38;;;25.30;99.90;;;;;;5065412;28;20052;-58
2023/10/02 14:08:36;;;;;;;19.27;6.57;;;25.40;99.90;;;;;;5064100;28;20112;-52
2023/10/02 14:11:02;;;;;;;22.40;7.38;;;25.50;99.90;;;;;;5063441;28;20111;-51